Time;durP1;ratioP1;P1;durP2;ratioP2;P2;SDS_P1;SDS_P2;PMS_P1;PMS_P2;Temp;Humidity;BMP_temperature;BMP_pressure;BME280_temperature;BME280_humidity;BME280_pressure;Samples;Min_cycle;Max_cycle;Signal;HPM_P1;HPM_P2
2023/03/18 00:00:45;;;;;;;15.98;6.78;;;;;;;13.00;87.64;100682.75;5096443;28;20044;-63
2023/03/18 00:03:13;;;;;;;15.07;6.65;;;;;;;12.96;88.14;100666.13;5113406;28;20055;-62
2023/03/18 00:05:40;;;;;;;11.57;5.65;;;;;;;12.95;87.63;100669.94;5100315;28;20040;-62
2023/03/18 00:08:08;;;;;;;18.23;7.68;;;;;;;12.94;88.28;100656.53;5092909;28;20051;-64
2023/03/18 00:10:36;;;;;;;13.90;6.68;;;;;;;12.94;88.18;100662.84;5075780;28;20058;-63
2023/03/18 00:13:04;;;;;;;14.20;6.97;;;;;;;12.93;88.15;100654.94;5092593;28;20048;-65
2023/03/18 00:15:32;;;;;;;17.17;8.02;;;;;;;12.92;87.68;100648.66;5100230;28;20062;-64
2023/03/18 00:18:00;;;;;;;15.10;7.80;;;;;;;12.92;88.09;100647.84;5112468;28;20510;-64
2023/03/18 00:20:37;;;;;;;16.98;8.18;;;;;;;12.91;88.35;100646.19;5096003;28;20071;-63
2023/03/18 00:23:07;;;;;;;14.05;6.72;;;;;;;12.92;88.52;100653.31;5114068;28;20476;-62
2023/03/18 00:25:36;;;;;;;12.00;5.95;;;;;;;12.91;88.60;100651.66;5087946;28;20190;-62
2023/03/18 00:28:05;;;;;;;13.23;6.38;;;;;;;12.92;88.43;100654.13;5113230;28;20048;-62
2023/03/18 00:30:36;;;;;;;11.55;6.32;;;;;;;12.90;89.02;100653.59;5113843;28;20046;-62
2023/03/18 00:33:04;;;;;;;15.48;7.28;;;;;;;12.90;88.68;100666.44;5114301;28;20044;-62
2023/03/18 00:35:32;;;;;;;13.70;6.75;;;;;;;12.87;89.47;100662.38;5102296;28;20395;-63
2023/03/18 00:38:02;;;;;;;12.30;7.10;;;;;;;12.88;89.28;100660.44;5076063;28;20075;-62
2023/03/18 00:40:42;;;;;;;13.68;5.55;;;;;;;12.88;89.15;100669.47;5094014;28;20127;-62
2023/03/18 00:43:11;;;;;;;11.18;5.93;;;;;;;12.87;89.41;100665.09;5093598;28;20047;-63
2023/03/18 00:45:41;;;;;;;13.85;6.43;;;;;;;12.89;89.55;100673.00;5097979;28;20068;-62
2023/03/18 00:48:10;;;;;;;13.80;5.68;;;;;;;12.88;89.27;100676.84;5116522;28;20050;-62
2023/03/18 00:50:37;;;;;;;14.88;7.13;;;;;;;12.87;89.88;100677.94;5146201;28;20058;-62
2023/03/18 00:53:05;;;;;;;13.05;5.82;;;;;;;12.90;89.28;100677.38;5136047;27;20035;-63
2023/03/18 00:55:33;;;;;;;18.73;7.63;;;;;;;12.87;90.09;100673.31;5104582;28;20079;-64
2023/03/18 00:58:01;;;;;;;11.77;6.82;;;;;;;12.86;89.63;100670.84;5124053;28;20503;-64
2023/03/18 01:00:29;;;;;;;16.52;7.00;;;;;;;12.85;90.09;100674.69;5099471;28;20035;-64
2023/03/18 01:02:58;;;;;;;12.98;5.65;;;;;;;12.84;89.61;100676.59;5114245;28;20124;-64
2023/03/18 01:05:30;;;;;;;12.00;5.70;;;;;;;12.89;90.10;100686.69;5075921;28;20052;-63
2023/03/18 01:07:58;;;;;;;10.45;5.78;;;;;;;12.87;89.53;100692.44;5095731;28;20067;-64
2023/03/18 01:10:27;;;;;;;14.50;6.43;;;;;;;12.86;89.76;100679.88;5093682;28;20044;-64
2023/03/18 01:12:55;;;;;;;11.43;5.53;;;;;;;12.86;90.32;100681.78;5076227;28;20040;-64
2023/03/18 01:15:23;;;;;;;12.45;5.20;;;;;;;12.86;90.27;100681.78;5093101;28;20049;-64
2023/03/18 01:17:55;;;;;;;12.07;6.20;;;;;;;12.85;89.67;100685.63;5097724;27;20519;-63
2023/03/18 01:20:25;;;;;;;15.73;7.47;;;;;;;12.82;90.28;100686.19;5109909;28;20047;-63
2023/03/18 01:22:55;;;;;;;14.52;7.63;;;;;;;12.78;90.72;100692.25;5116931;28;20548;-64
2023/03/18 01:25:24;;;;;;;13.20;6.63;;;;;;;12.74;91.07;100691.16;5081455;28;20047;-63
2023/03/18 01:27:54;;;;;;;12.05;6.68;;;;;;;12.72;91.14;100689.81;5095789;28;20058;-65
2023/03/18 01:30:23;;;;;;;11.65;6.38;;;;;;;12.70;91.26;100687.41;5113157;27;20043;-65
2023/03/18 01:32:53;;;;;;;16.95;7.43;;;;;;;12.67;91.65;100690.69;5099109;28;20067;-64
2023/03/18 01:35:21;;;;;;;15.77;7.45;;;;;;;12.65;92.10;100681.97;5115479;28;20044;-65
2023/03/18 01:37:50;;;;;;;16.55;6.20;;;;;;;12.67;92.05;100684.41;5116275;28;20073;-64
2023/03/18 01:40:19;;;;;;;12.77;7.10;;;;;;;12.66;92.29;100682.78;5104504;28;20115;-65
2023/03/18 01:42:57;;;;;;;12.15;5.72;;;;;;;12.65;92.42;100681.97;5096010;28;20076;-65
2023/03/18 01:45:28;;;;;;;11.43;5.25;;;;;;;12.67;91.98;100682.47;5097374;27;20054;-64
2023/03/18 01:48:00;;;;;;;14.52;6.03;;;;;;;12.66;92.93;100683.59;5112610;28;20048;-64
2023/03/18 01:50:31;;;;;;;10.95;5.10;;;;;;;12.71;92.51;100693.66;5080600;28;20104;-62
2023/03/18 01:53:20;;;;;;;8.60;3.85;;;;;;;12.81;92.00;100676.38;5095351;28;20040;-65
2023/03/18 01:55:49;;;;;;;10.77;4.47;;;;;;;12.85;92.08;100675.50;5091017;28;20056;-62
2023/03/18 01:58:26;;;;;;;12.32;5.70;;;;;;;12.87;92.75;100672.47;5102498;28;20058;-62
2023/03/18 02:01:28;;;;;;;12.90;5.53;;;;;;;12.91;93.77;100679.00;5063589;28;20047;-62
2023/03/18 02:04:14;;;;;;;10.77;4.93;;;;;;;13.00;93.50;100671.81;5095568;28;20403;-62
2023/03/18 02:07:06;;;;;;;9.10;4.25;;;;;;;12.99;92.46;100683.88;5125292;27;20043;-63
2023/03/18 02:09:34;;;;;;;12.32;4.65;;;;;;;13.01;93.75;100670.69;5121022;27;20043;-64
2023/03/18 02:12:04;;;;;;;7.82;3.55;;;;;;;13.05;93.34;100674.50;5136600;27;20047;-64
2023/03/18 02:14:32;;;;;;;8.25;4.53;;;;;;;12.95;96.39;100678.16;5132727;27;20055;-64
2023/03/18 02:17:10;;;;;;;9.45;4.88;;;;;;;13.00;94.54;100682.75;5116024;27;20047;-64
2023/03/18 02:20:33;;;;;;;6.97;3.33;;;;;;;12.98;93.26;100684.97;5098169;28;20048;-63
2023/03/18 02:23:14;;;;;;;17.13;6.25;;;;;;;12.96;96.12;100681.69;5070071;28;20414;-65
2023/03/18 02:26:08;;;;;;;11.77;5.40;;;;;;;12.86;98.20;100679.06;5100239;28;20051;-64
2023/03/18 02:28:36;;;;;;;11.10;5.05;;;;;;;12.75;99.27;100678.34;5116592;27;20044;-64
2023/03/18 02:31:10;;;;;;;9.75;5.00;;;;;;;12.70;99.20;100679.19;5097894;28;20048;-64
2023/03/18 02:33:41;;;;;;;16.88;7.78;;;;;;;12.63;100.00;100678.69;5115316;28;20557;-64
2023/03/18 02:36:22;;;;;;;13.48;5.20;;;;;;;12.58;100.00;100682.28;5098290;28;20096;-65
2023/03/18 02:38:51;;;;;;;8.75;4.10;;;;;;;12.60;100.00;100690.19;5094952;28;20062;-63
2023/03/18 02:41:29;;;;;;;13.00;6.10;;;;;;;12.58;100.00;100692.41;5094380;28;20048;-64
2023/03/18 02:43:57;;;;;;;15.90;7.68;;;;;;;12.55;100.00;100695.69;5097956;28;20051;-64
2023/03/18 02:46:46;;;;;;;10.82;5.60;;;;;;;12.51;100.00;100703.66;5098541;28;20473;-64
2023/03/18 02:49:16;;;;;;;10.40;5.50;;;;;;;12.52;100.00;100704.47;5109846;27;20387;-64
2023/03/18 02:51:44;;;;;;;14.70;6.22;;;;;;;12.49;100.00;100710.50;5060890;28;20157;-64
2023/03/18 02:54:24;;;;;;;11.95;5.70;;;;;;;12.48;100.00;100709.69;5108820;27;20419;-64
2023/03/18 02:56:52;;;;;;;12.90;6.07;;;;;;;12.50;100.00;100720.31;5097846;28;20047;-64
2023/03/18 02:59:21;;;;;;;11.20;5.80;;;;;;;12.49;100.00;100715.97;5113573;28;20407;-64
2023/03/18 03:01:50;;;;;;;10.48;4.78;;;;;;;12.47;100.00;100718.97;5097463;28;20059;-65
2023/03/18 03:04:20;;;;;;;10.57;5.28;;;;;;;12.49;100.00;100724.16;5064477;28;20058;-65
2023/03/18 03:06:48;;;;;;;12.38;6.25;;;;;;;12.48;100.00;100715.16;5080710;28;20055;-64
2023/03/18 03:09:21;;;;;;;11.18;5.63;;;;;;;12.49;100.00;100715.97;5114661;28;20398;-64
2023/03/18 03:11:50;;;;;;;14.10;5.90;;;;;;;12.48;100.00;100719.78;5095658;27;20052;-62
2023/03/18 03:14:21;;;;;;;13.07;5.15;;;;;;;12.49;100.00;100724.16;5094368;28;20140;-64
2023/03/18 03:16:53;;;;;;;12.57;6.82;;;;;;;12.48;100.00;100728.00;5093996;28;20044;-62
2023/03/18 03:19:22;;;;;;;15.88;6.57;;;;;;;12.45;100.00;100729.38;5077430;28;20044;-63
2023/03/18 03:21:50;;;;;;;13.63;6.15;;;;;;;12.44;100.00;100735.13;5093460;28;20044;-64
2023/03/18 03:24:18;;;;;;;14.30;7.22;;;;;;;12.43;100.00;100741.69;5115746;28;20527;-64
2023/03/18 03:26:46;;;;;;;12.52;5.88;;;;;;;12.44;100.00;100740.59;5114695;28;20122;-63
2023/03/18 03:29:14;;;;;;;13.57;6.57;;;;;;;12.44;100.00;100743.34;5111930;27;20040;-62
2023/03/18 03:31:42;;;;;;;15.43;7.95;;;;;;;12.39;100.00;100746.06;5077142;28;20044;-63
2023/03/18 03:34:10;;;;;;;13.93;6.82;;;;;;;12.36;100.00;100742.00;5093980;28;20097;-63
2023/03/18 03:36:38;;;;;;;17.23;8.10;;;;;;;12.34;100.00;100747.75;5094702;28;20074;-63
2023/03/18 03:39:06;;;;;;;12.18;6.55;;;;;;;12.32;100.00;100749.94;5092889;28;20131;-64
2023/03/18 03:41:35;;;;;;;13.63;7.95;;;;;;;12.32;100.00;100744.47;5092799;28;20048;-62
2023/03/18 03:44:02;;;;;;;16.42;7.68;;;;;;;12.31;100.00;100752.94;5093299;28;20060;-64
2023/03/18 03:46:30;;;;;;;14.85;8.20;;;;;;;12.29;100.00;100750.53;5093225;28;20123;-62
2023/03/18 03:48:59;;;;;;;16.02;8.43;;;;;;;12.28;100.00;100757.06;5093185;28;20051;-64
2023/03/18 03:51:27;;;;;;;18.00;8.85;;;;;;;12.27;100.00;100751.91;5092713;28;20100;-64
2023/03/18 03:53:54;;;;;;;16.08;8.60;;;;;;;12.26;100.00;100755.72;5096913;28;20108;-64
2023/03/18 03:56:22;;;;;;;16.38;9.43;;;;;;;12.26;100.00;100751.06;5114269;28;20103;-63
2023/03/18 03:58:50;;;;;;;12.75;6.78;;;;;;;12.27;100.00;100751.91;5096299;28;20126;-64
2023/03/18 04:01:18;;;;;;;16.33;8.60;;;;;;;12.27;100.00;100757.38;5112115;27;20062;-65
2023/03/18 04:03:48;;;;;;;17.17;7.93;;;;;;;12.25;100.00;100751.34;5080084;28;20514;-64
2023/03/18 04:06:17;;;;;;;15.90;8.85;;;;;;;12.22;100.00;100750.00;5096385;28;20048;-63
2023/03/18 04:08:54;;;;;;;17.10;8.35;;;;;;;12.22;100.00;100757.34;5098991;28;20097;-64
2023/03/18 04:11:22;;;;;;;12.82;7.40;;;;;;;12.21;100.00;100756.56;5114066;27;20361;-63
2023/03/18 04:13:52;;;;;;;13.68;7.78;;;;;;;12.21;100.00;100759.28;5113928;28;20134;-64
2023/03/18 04:16:22;;;;;;;11.88;6.40;;;;;;;12.23;100.00;100762.56;5113265;28;20047;-64
2023/03/18 04:18:50;;;;;;;13.13;7.30;;;;;;;12.22;100.00;100760.94;5112862;28;20051;-64
2023/03/18 04:21:22;;;;;;;20.20;9.48;;;;;;;12.20;100.00;100754.94;5112379;28;20043;-63
2023/03/18 04:23:53;;;;;;;13.13;7.03;;;;;;;12.19;100.00;100756.00;5096163;28;20055;-63
2023/03/18 04:26:21;;;;;;;17.25;9.30;;;;;;;12.20;100.00;100768.59;5113230;28;20047;-63
2023/03/18 04:28:50;;;;;;;19.02;9.38;;;;;;;12.19;100.00;100766.94;5112852;28;20075;-65
2023/03/18 04:31:18;;;;;;;18.48;9.40;;;;;;;12.14;100.00;100759.56;5094090;28;20052;-63
2023/03/18 04:33:46;;;;;;;15.85;9.55;;;;;;;12.10;100.00;100768.63;5105367;27;20135;-63
2023/03/18 04:36:15;;;;;;;15.40;9.88;;;;;;;12.02;100.00;100756.34;5059610;28;20056;-62
2023/03/18 04:38:43;;;;;;;22.50;11.10;;;;;;;11.98;100.00;100765.38;5075552;28;20048;-64
2023/03/18 04:41:11;;;;;;;15.43;8.18;;;;;;;12.01;100.00;100770.31;5076322;28;20395;-64
2023/03/18 04:43:39;;;;;;;13.70;9.02;;;;;;;11.98;100.00;100759.91;5084331;28;20552;-64
2023/03/18 04:46:08;;;;;;;16.77;9.85;;;;;;;11.99;100.00;100761.56;5092472;28;20048;-65
2023/03/18 04:48:38;;;;;;;17.42;10.05;;;;;;;11.99;100.00;100761.56;5076007;28;20511;-64
2023/03/18 04:51:08;;;;;;;14.30;8.75;;;;;;;11.99;100.00;100767.03;5079062;28;20043;-64
2023/03/18 04:53:37;;;;;;;14.85;8.25;;;;;;;12.00;100.00;100763.19;5106478;27;20441;-63
2023/03/18 04:56:06;;;;;;;17.45;10.07;;;;;;;12.00;100.00;100763.19;5102129;28;20047;-64
2023/03/18 04:58:41;;;;;;;20.17;9.65;;;;;;;12.02;100.00;100766.47;5103867;28;20047;-64
2023/03/18 05:01:15;;;;;;;14.93;8.23;;;;;;;12.02;100.00;100771.94;5111665;28;20117;-65
2023/03/18 05:03:43;;;;;;;15.95;9.15;;;;;;;12.02;100.00;100777.41;5101172;27;20070;-63
2023/03/18 05:06:24;;;;;;;14.80;8.25;;;;;;;12.01;100.00;100773.84;5087504;28;20048;-64
2023/03/18 05:08:58;;;;;;;20.27;12.93;;;;;;;11.86;100.00;100780.16;5081561;28;20456;-65
2023/03/18 05:11:29;;;;;;;24.60;13.35;;;;;;;11.81;100.00;100791.09;5104613;28;20039;-65
2023/03/18 05:14:00;;;;;;;21.50;12.88;;;;;;;11.79;100.00;100779.63;5085725;28;20499;-64
2023/03/18 05:16:34;;;;;;;21.45;13.50;;;;;;;11.78;100.00;100788.09;5118589;27;20516;-64
2023/03/18 05:19:03;;;;;;;20.00;11.02;;;;;;;11.78;100.00;100788.09;5101889;28;20040;-64
2023/03/18 05:21:31;;;;;;;17.80;9.00;;;;;;;11.83;100.00;100790.78;5119237;28;20036;-64
2023/03/18 05:24:00;;;;;;;11.18;7.18;;;;;;;11.89;100.00;100795.19;5102446;27;20421;-64
2023/03/18 05:26:34;;;;;;;12.25;6.82;;;;;;;11.96;100.00;100792.19;5081661;28;20048;-63
2023/03/18 05:29:02;;;;;;;14.60;7.93;;;;;;;12.00;100.00;100799.53;5099150;28;20083;-64
2023/03/18 05:31:41;;;;;;;19.80;13.25;;;;;;;11.91;100.00;100798.47;5098235;28;20047;-64
2023/03/18 05:34:09;;;;;;;19.77;13.00;;;;;;;11.78;100.00;100791.63;5110345;27;20040;-64
2023/03/18 05:36:37;;;;;;;23.50;14.10;;;;;;;11.70;100.00;100797.66;5118241;27;20035;-64
2023/03/18 05:39:07;;;;;;;21.13;13.73;;;;;;;11.62;100.00;100806.41;5120337;28;20046;-65
2023/03/18 05:41:35;;;;;;;22.05;13.18;;;;;;;11.60;100.00;100798.50;5102113;28;20044;-64
2023/03/18 05:44:06;;;;;;;18.02;10.13;;;;;;;11.63;100.00;100795.22;5082822;28;20061;-64
2023/03/18 05:46:36;;;;;;;17.80;11.18;;;;;;;11.67;100.00;100799.03;5105861;28;20067;-61
2023/03/18 05:49:11;;;;;;;18.25;10.70;;;;;;;11.73;100.00;100797.09;5113245;28;20059;-63
2023/03/18 05:52:00;;;;;;;13.25;8.07;;;;;;;11.78;100.00;100794.34;5099956;28;20056;-64
2023/03/18 05:54:36;;;;;;;15.20;9.27;;;;;;;11.81;100.00;100793.81;5106149;27;20103;-63
2023/03/18 05:57:06;;;;;;;17.92;11.27;;;;;;;11.82;100.00;100795.44;5124785;27;20052;-60
2023/03/18 05:59:34;;;;;;;13.45;8.70;;;;;;;11.84;100.00;100803.38;5108018;28;20096;-63
2023/03/18 06:02:03;;;;;;;12.23;7.32;;;;;;;11.88;100.00;100813.50;5117290;28;20109;-63
2023/03/18 06:04:31;;;;;;;16.10;7.13;;;;;;;11.90;100.00;100814.00;5081506;27;20031;-66
2023/03/18 06:07:00;;;;;;;16.23;8.43;;;;;;;11.90;100.00;100814.00;5098821;28;20104;-64
2023/03/18 06:09:27;;;;;;;15.07;8.40;;;;;;;11.89;100.00;100812.38;5116192;28;20078;-63
2023/03/18 06:11:57;;;;;;;14.07;8.98;;;;;;;11.87;100.00;100820.03;5115297;28;20047;-62
2023/03/18 06:14:28;;;;;;;13.40;7.82;;;;;;;11.90;100.00;100832.31;5115727;28;20122;-64
2023/03/18 06:16:59;;;;;;;12.10;6.75;;;;;;;11.91;100.00;100837.50;5111271;27;20491;-64
2023/03/18 06:19:29;;;;;;;13.23;7.72;;;;;;;11.92;100.00;100835.59;5078244;28;20054;-65
2023/03/18 06:21:57;;;;;;;12.13;7.05;;;;;;;11.91;100.00;100837.50;5078344;28;20054;-66
2023/03/18 06:24:25;;;;;;;13.43;6.53;;;;;;;11.96;100.00;100841.31;5094393;28;20101;-64
2023/03/18 06:26:55;;;;;;;12.93;7.05;;;;;;;11.97;100.00;100830.09;5104952;27;20131;-64
2023/03/18 06:29:24;;;;;;;13.18;8.20;;;;;;;11.98;100.00;100839.09;5116282;27;20047;-64
2023/03/18 06:31:54;;;;;;;16.08;9.73;;;;;;;11.98;100.00;100836.38;5099077;28;20381;-64
2023/03/18 06:34:25;;;;;;;16.55;8.43;;;;;;;11.94;100.00;100830.66;5115632;28;20043;-64
2023/03/18 06:36:55;;;;;;;14.18;7.60;;;;;;;11.91;100.00;100840.22;5115192;27;20036;-63
2023/03/18 06:39:23;;;;;;;10.15;6.28;;;;;;;11.90;100.00;100837.75;5114682;28;20097;-64
2023/03/18 06:41:51;;;;;;;12.48;5.88;;;;;;;11.94;100.00;100830.66;5097884;28;20119;-63
2023/03/18 06:44:35;;;;;;;14.07;8.18;;;;;;;11.94;100.00;100830.66;5114661;28;20126;-64
2023/03/18 06:47:13;;;;;;;11.25;6.97;;;;;;;11.92;100.00;100833.66;4390508;28;10000438;-65
2023/03/18 06:49:50;;;;;;;19.58;10.55;;;;;;;11.90;100.00;100827.66;5090888;28;20076;-66
2023/03/18 06:52:27;;;;;;;17.63;9.27;;;;;;;11.88;100.00;100832.59;5107726;28;20040;-65
2023/03/18 06:55:02;;;;;;;12.40;8.02;;;;;;;11.88;100.00;100838.06;5075389;28;20385;-65
2023/03/18 06:57:29;;;;;;;9.60;5.85;;;;;;;11.92;100.00;100844.59;5077676;28;20090;-65
2023/03/18 06:59:57;;;;;;;9.90;6.18;;;;;;;11.92;100.00;100850.03;5113746;28;20100;-65
2023/03/18 07:02:26;;;;;;;12.38;7.35;;;;;;;11.94;100.00;100845.13;5113550;28;20051;-64
2023/03/18 07:04:56;;;;;;;11.25;5.93;;;;;;;11.97;100.00;100854.69;5081334;28;20043;-63
2023/03/18 07:07:24;;;;;;;14.23;7.55;;;;;;;11.96;100.00;100846.78;5097803;28;20191;-64
2023/03/18 07:09:53;;;;;;;11.57;6.82;;;;;;;11.96;100.00;100854.97;5115618;28;20047;-65
2023/03/18 07:12:21;;;;;;;14.60;8.05;;;;;;;11.94;100.00;100856.06;5114505;28;20044;-64
2023/03/18 07:14:52;;;;;;;10.73;6.05;;;;;;;12.01;100.00;100871.34;5114303;28;20089;-64
2023/03/18 07:17:20;;;;;;;14.45;8.90;;;;;;;12.07;100.00;100867.50;5113904;28;20522;-64
2023/03/18 07:19:50;;;;;;;17.10;8.48;;;;;;;12.06;100.00;100872.13;5114682;28;20209;-65
2023/03/18 07:22:18;;;;;;;14.23;9.38;;;;;;;12.00;100.00;100864.22;5114087;28;20483;-64
2023/03/18 07:24:47;;;;;;;14.25;8.75;;;;;;;12.04;100.00;100868.06;5114055;28;20116;-63
2023/03/18 07:27:15;;;;;;;11.70;5.95;;;;;;;12.10;100.00;100880.63;5115161;28;20075;-64
2023/03/18 07:29:43;;;;;;;10.55;6.05;;;;;;;12.15;100.00;100880.59;5099217;28;20071;-65
2023/03/18 07:32:10;;;;;;;12.07;6.05;;;;;;;12.12;100.00;100881.13;5076935;28;20051;-63
2023/03/18 07:34:38;;;;;;;13.52;5.60;;;;;;;12.12;100.00;100884.69;5093563;28;20050;-64
2023/03/18 07:37:06;;;;;;;11.38;5.22;;;;;;;12.23;100.00;100885.47;5094444;28;20123;-64
2023/03/18 07:39:33;;;;;;;11.90;6.82;;;;;;;12.17;100.00;100875.69;5094421;28;20067;-63
2023/03/18 07:42:01;;;;;;;16.65;10.45;;;;;;;12.09;100.00;100887.97;5094328;28;20412;-64
2023/03/18 07:44:30;;;;;;;16.67;8.13;;;;;;;12.12;100.00;100892.06;5062255;28;20050;-65
2023/03/18 07:46:58;;;;;;;13.10;8.38;;;;;;;12.09;100.00;100892.63;5098130;28;20052;-63
2023/03/18 07:49:26;;;;;;;12.35;8.43;;;;;;;12.07;100.00;100889.34;5105282;27;20082;-64
2023/03/18 07:51:53;;;;;;;11.45;4.38;;;;;;;12.07;100.00;100900.25;5104977;28;20044;-63
2023/03/18 07:54:22;;;;;;;12.35;7.13;;;;;;;12.15;100.00;100897.00;5116265;28;20122;-64
2023/03/18 07:56:52;;;;;;;9.65;5.30;;;;;;;12.23;100.00;100903.78;5113540;28;20076;-64
2023/03/18 07:59:20;;;;;;;13.60;8.63;;;;;;;12.34;100.00;100906.22;5111308;28;20475;-65
2023/03/18 08:01:47;;;;;;;17.27;11.32;;;;;;;12.15;100.00;100916.09;5096459;28;20495;-65
2023/03/18 08:04:16;;;;;;;21.30;12.60;;;;;;;12.05;100.00;100913.38;5114358;28;20051;-64
2023/03/18 08:06:44;;;;;;;18.40;12.98;;;;;;;12.02;100.00;100919.41;5114531;28;20150;-64
2023/03/18 08:09:12;;;;;;;18.35;11.40;;;;;;;12.00;100.00;100916.97;5113428;27;20514;-63
2023/03/18 08:11:40;;;;;;;18.52;12.45;;;;;;;12.01;100.00;100918.59;5112771;28;20047;-65
2023/03/18 08:14:08;;;;;;;18.08;12.15;;;;;;;11.99;100.00;100920.75;5105162;27;20432;-65
2023/03/18 08:16:35;;;;;;;21.95;12.13;;;;;;;11.99;100.00;100917.22;5113805;28;20127;-64
2023/03/18 08:19:03;;;;;;;15.73;10.95;;;;;;;11.97;100.00;100912.03;5106027;28;20056;-63
2023/03/18 08:21:31;;;;;;;12.82;4.38;;;;;;;12.14;100.00;100909.00;5101541;27;20365;-65
2023/03/18 08:23:58;;;;;;;8.73;3.05;;;;;;;12.34;100.00;100906.22;5093958;28;20118;-63
2023/03/18 08:26:26;;;;;;;14.50;6.95;;;;;;;12.50;100.00;100903.44;5092089;28;20048;-64
2023/03/18 08:28:54;;;;;;;9.40;3.20;;;;;;;12.59;100.00;100904.50;5093937;28;20044;-65
2023/03/18 08:31:21;;;;;;;12.18;5.20;;;;;;;12.68;100.00;100904.75;5075546;28;20115;-63
2023/03/18 08:33:52;;;;;;;13.80;7.75;;;;;;;12.61;100.00;100904.22;5094136;28;20044;-65
2023/03/18 08:36:21;;;;;;;11.98;7.45;;;;;;;12.47;100.00;100912.19;5092605;28;20410;-64
2023/03/18 08:38:49;;;;;;;9.95;4.57;;;;;;;12.56;100.00;100905.06;5093916;28;20052;-64
2023/03/18 08:41:17;;;;;;;9.05;4.85;;;;;;;12.57;100.00;100904.75;5092883;28;20048;-65
2023/03/18 08:43:45;;;;;;;12.77;8.25;;;;;;;12.51;100.00;100905.09;5093921;28;20044;-63
2023/03/18 08:46:13;;;;;;;15.13;9.00;;;;;;;12.41;100.00;100908.66;5094222;28;20147;-65
2023/03/18 08:48:41;;;;;;;8.65;3.10;;;;;;;12.49;100.00;100912.75;5094526;28;20048;-64
2023/03/18 08:51:09;;;;;;;13.45;6.35;;;;;;;12.65;100.00;100911.59;5059455;28;20414;-64
2023/03/18 08:53:37;;;;;;;12.05;6.25;;;;;;;12.67;100.00;100908.56;5094053;28;20051;-64
2023/03/18 08:56:06;;;;;;;9.60;4.55;;;;;;;12.62;100.00;100917.59;5093585;28;20047;-64
2023/03/18 08:58:35;;;;;;;11.82;4.80;;;;;;;12.71;100.00;100915.91;5092322;28;20044;-64
2023/03/18 09:01:04;;;;;;;9.32;4.57;;;;;;;12.73;100.00;100919.19;5092114;28;20072;-62
2023/03/18 09:03:33;;;;;;;11.98;4.63;;;;;;;12.79;100.00;100918.09;5092598;28;20135;-62
2023/03/18 09:06:02;;;;;;;10.40;3.30;;;;;;;12.99;100.00;100919.91;5092804;28;20076;-63
2023/03/18 09:08:31;;;;;;;10.13;3.72;;;;;;;13.00;100.00;100918.78;5092199;28;20055;-64
2023/03/18 09:10:59;;;;;;;11.73;3.55;;;;;;;13.20;100.00;100914.28;5092616;28;20499;-64
2023/03/18 09:13:27;;;;;;;9.98;3.90;;;;;;;13.18;100.00;100919.22;5092562;28;20048;-64
2023/03/18 09:15:54;;;;;;;8.02;4.25;;;;;;;13.24;100.00;100918.09;5094312;28;20391;-63
2023/03/18 09:18:23;;;;;;;10.43;6.35;;;;;;;13.20;100.00;100923.34;5094003;28;20040;-65
2023/03/18 09:20:51;;;;;;;8.57;4.30;;;;;;;13.20;100.00;100922.50;5092242;28;20101;-64
2023/03/18 09:23:20;;;;;;;11.38;5.93;;;;;;;13.17;100.00;100923.88;5093019;28;20398;-63
2023/03/18 09:25:49;;;;;;;10.13;5.00;;;;;;;13.13;100.00;100922.84;5093369;28;20044;-62
2023/03/18 09:28:16;;;;;;;8.02;4.10;;;;;;;13.09;100.00;100918.22;5092161;28;20068;-64
2023/03/18 09:30:44;;;;;;;8.65;4.28;;;;;;;13.05;100.00;100920.69;5092460;28;20082;-65
2023/03/18 09:33:12;;;;;;;9.73;3.70;;;;;;;13.11;100.00;100918.75;5076547;28;20381;-63
2023/03/18 09:35:40;;;;;;;10.82;4.90;;;;;;;13.10;100.00;100926.13;5075982;28;20098;-63
2023/03/18 09:38:10;;;;;;;9.57;5.43;;;;;;;13.16;100.00;100921.44;5098284;28;20070;-61
2023/03/18 09:40:53;;;;;;;9.18;3.40;;;;;;;13.14;99.83;100923.66;5091274;28;20071;-62
2023/03/18 09:43:33;;;;;;;6.50;3.00;;;;;;;13.14;99.14;100929.13;5084162;28;20127;-63
2023/03/18 09:46:09;;;;;;;6.35;3.05;;;;;;;13.17;98.99;100923.06;5098632;28;20050;-63
2023/03/18 09:49:03;;;;;;;11.23;4.60;;;;;;;13.19;99.18;100927.16;5107465;28;20044;-64
2023/03/18 09:51:49;;;;;;;9.93;3.78;;;;;;;13.28;98.19;100940.28;5105428;28;20143;-64
2023/03/18 09:54:26;;;;;;;9.55;4.65;;;;;;;13.32;99.39;100935.88;5098613;28;20040;-64
2023/03/18 09:56:54;;;;;;;9.27;3.55;;;;;;;13.32;98.98;100930.41;5079937;28;20040;-63
2023/03/18 09:59:29;;;;;;;11.13;2.92;;;;;;;13.37;97.12;100935.84;5095864;28;20078;-63
2023/03/18 10:01:57;;;;;;;6.55;2.92;;;;;;;13.38;97.52;100940.22;5095247;28;20048;-63
2023/03/18 10:04:43;;;;;;;12.57;6.55;;;;;;;13.33;99.03;100941.06;5096526;28;20068;-64
2023/03/18 10:07:18;;;;;;;10.90;5.05;;;;;;;13.32;99.14;100942.16;5096052;28;20131;-64
2023/03/18 10:09:53;;;;;;;8.55;4.45;;;;;;;13.32;100.00;100941.34;5096761;28;20054;-63
2023/03/18 10:12:40;;;;;;;6.43;3.10;;;;;;;13.32;98.43;100942.16;5078490;28;20126;-64
2023/03/18 10:15:31;;;;;;;9.18;4.70;;;;;;;13.35;99.33;100940.81;5096107;28;20159;-63
2023/03/18 10:18:02;;;;;;;10.52;5.97;;;;;;;13.33;100.00;100932.03;5095266;28;20036;-64
2023/03/18 10:20:54;;;;;;;11.18;5.30;;;;;;;13.33;100.00;100919.19;5096455;28;20048;-65
2023/03/18 10:23:31;;;;;;;7.03;4.03;;;;;;;13.40;100.00;100921.59;5078211;28;20506;-64
2023/03/18 10:26:05;;;;;;;11.13;5.22;;;;;;;13.47;99.41;100927.56;5095384;28;20054;-65
2023/03/18 10:28:56;;;;;;;12.32;5.32;;;;;;;13.49;99.93;100924.53;5096508;28;20119;-64
2023/03/18 10:31:36;;;;;;;7.68;2.90;;;;;;;13.53;98.62;100936.56;5094266;28;20488;-65
2023/03/18 10:34:12;;;;;;;7.25;3.33;;;;;;;13.61;95.80;100931.31;5096220;28;20043;-64
2023/03/18 10:37:00;;;;;;;9.47;3.50;;;;;;;13.72;93.85;100928.47;5078069;28;20047;-65
2023/03/18 10:39:28;;;;;;;6.85;2.92;;;;;;;13.84;92.63;100924.25;5096137;28;20392;-63
2023/03/18 10:42:00;;;;;;;9.65;5.53;;;;;;;13.85;95.97;100933.28;5094549;28;20139;-63
2023/03/18 10:44:35;;;;;;;8.93;3.75;;;;;;;13.87;94.14;100931.06;5061207;28;20060;-64
2023/03/18 10:47:14;;;;;;;7.93;3.97;;;;;;;13.92;94.30;100931.03;5094725;28;20048;-64
2023/03/18 10:50:10;;;;;;;10.20;4.65;;;;;;;13.88;97.65;100927.25;5077090;28;20325;-65
2023/03/18 10:52:54;;;;;;;10.07;5.30;;;;;;;13.89;97.74;100930.78;5091118;28;20109;-63
2023/03/18 10:55:29;;;;;;;17.60;3.97;;;;;;;13.95;92.99;100932.38;5094289;28;20047;-64
2023/03/18 10:57:57;;;;;;;12.35;3.22;;;;;;;14.02;91.34;100925.47;5077858;28;20079;-64
2023/03/18 11:00:27;;;;;;;26.60;5.65;;;;;;;14.11;92.19;100922.09;5076970;28;20044;-64
2023/03/18 11:02:55;;;;;;;11.45;4.45;;;;;;;14.04;94.67;100920.50;5093815;28;20057;-64
2023/03/18 11:05:27;;;;;;;9.23;4.53;;;;;;;14.02;94.48;100922.72;5077749;28;20114;-64
2023/03/18 11:08:07;;;;;;;9.73;4.80;;;;;;;13.97;95.58;100919.19;5095548;28;20044;-65
2023/03/18 11:10:47;;;;;;;7.18;3.60;;;;;;;13.97;95.28;100917.28;5094831;28;20044;-63
2023/03/18 11:13:20;;;;;;;9.73;4.43;;;;;;;13.98;95.17;100921.66;5095388;28;20127;-65
2023/03/18 11:15:55;;;;;;;9.23;4.28;;;;;;;14.01;94.72;100915.59;5093912;28;20093;-64
2023/03/18 11:18:25;;;;;;;6.88;3.85;;;;;;;13.99;95.26;100912.31;5076883;28;20388;-63
2023/03/18 11:20:59;;;;;;;8.43;4.43;;;;;;;13.98;95.41;100916.19;5077279;28;20206;-64
2023/03/18 11:23:47;;;;;;;10.23;4.95;;;;;;;13.96;95.36;100907.44;5093514;28;20407;-65
2023/03/18 11:26:21;;;;;;;7.13;3.35;;;;;;;13.96;94.39;100912.91;5094180;28;20090;-64
2023/03/18 11:28:58;;;;;;;10.32;3.75;;;;;;;13.98;93.23;100916.19;5094084;28;20093;-65
2023/03/18 11:31:26;;;;;;;10.20;4.65;;;;;;;14.06;92.32;100914.72;5094774;28;20437;-65